Time;durP1;ratioP1;P1;durP2;ratioP2;P2;SDS_P1;SDS_P2;PMS_P1;PMS_P2;Temp;Humidity;BMP_temperature;BMP_pressure;BME280_temperature;BME280_humidity;BME280_pressure;Samples;Min_cycle;Max_cycle;Signal;HPM_P1;HPM_P2
2022/02/27 00:02:17;;;;;;;9.23;5.80;;;6.60;78.30;;;;;;4794807;29;20050;-80
2022/02/27 00:04:42;;;;;;;10.30;6.43;;;6.60;78.30;;;;;;4794558;29;20468;-80
2022/02/27 00:07:08;;;;;;;9.05;6.07;;;6.50;78.20;;;;;;4794611;29;20047;-80
2022/02/27 00:09:34;;;;;;;8.27;5.68;;;6.50;78.30;;;;;;4825203;29;20118;-79
2022/02/27 00:12:00;;;;;;;9.57;5.97;;;6.50;78.30;;;;;;4810264;29;20062;-80
2022/02/27 00:14:25;;;;;;;8.00;5.40;;;6.50;78.30;;;;;;4795201;29;20034;-80
2022/02/27 00:16:51;;;;;;;8.70;5.43;;;6.50;78.30;;;;;;4824706;29;20035;-80
2022/02/27 00:19:17;;;;;;;7.95;5.40;;;6.50;78.30;;;;;;4809675;29;20029;-80
2022/02/27 00:21:43;;;;;;;8.65;5.57;;;6.50;78.30;;;;;;4809510;29;20137;-80
2022/02/27 00:24:11;;;;;;;10.30;6.43;;;6.40;78.20;;;;;;4810113;29;20476;-81
2022/02/27 00:26:37;;;;;;;8.82;5.55;;;6.40;78.20;;;;;;4809185;29;20054;-81
2022/02/27 00:29:03;;;;;;;7.22;5.65;;;6.40;78.20;;;;;;4824489;29;20043;-80
2022/02/27 00:31:29;;;;;;;8.13;6.25;;;6.40;78.20;;;;;;4825216;29;20065;-80
2022/02/27 00:33:54;;;;;;;8.00;5.05;;;6.40;78.20;;;;;;4824753;29;20035;-81
2022/02/27 00:36:20;;;;;;;6.82;5.13;;;6.30;78.20;;;;;;4824655;29;20033;-80
2022/02/27 00:38:48;;;;;;;8.23;5.32;;;6.30;78.20;;;;;;4810020;29;20052;-80
2022/02/27 00:41:13;;;;;;;9.10;5.30;;;6.30;78.20;;;;;;4809385;29;20039;-79
2022/02/27 00:43:39;;;;;;;7.28;4.88;;;6.30;78.20;;;;;;4809801;29;20031;-80
2022/02/27 00:46:06;;;;;;;8.20;5.43;;;6.30;78.20;;;;;;4824120;29;20058;-80
2022/02/27 00:48:33;;;;;;;8.30;5.32;;;6.20;78.20;;;;;;4808739;29;20062;-80
2022/02/27 00:51:02;;;;;;;9.00;5.38;;;6.20;78.20;;;;;;4823895;29;20499;-82
2022/02/27 00:53:30;;;;;;;8.15;4.88;;;6.20;78.20;;;;;;4809586;29;20030;-81
2022/02/27 00:55:56;;;;;;;7.57;5.10;;;6.20;78.20;;;;;;4824196;29;20441;-80
2022/02/27 00:58:22;;;;;;;9.25;4.68;;;6.20;78.20;;;;;;4793994;29;20038;-80
2022/02/27 01:00:47;;;;;;;8.15;5.10;;;6.10;78.20;;;;;;4793254;29;20042;-79
2022/02/27 01:03:13;;;;;;;8.02;4.95;;;6.10;78.20;;;;;;4793491;29;20062;-81
2022/02/27 01:05:39;;;;;;;7.80;5.03;;;6.10;78.20;;;;;;4823658;29;20042;-80
2022/02/27 01:08:05;;;;;;;7.80;4.70;;;6.10;78.20;;;;;;4809083;29;20385;-82
2022/02/27 01:10:31;;;;;;;7.47;4.85;;;6.10;78.20;;;;;;4808776;29;20068;-80
2022/02/27 01:12:57;;;;;;;8.05;4.85;;;6.00;78.10;;;;;;4824666;29;20039;-80
2022/02/27 01:15:23;;;;;;;8.55;4.28;;;6.00;78.10;;;;;;4809255;29;20050;-81
2022/02/27 01:17:50;;;;;;;7.80;4.85;;;6.00;78.80;;;;;;4808999;29;20083;-80
2022/02/27 01:20:16;;;;;;;6.43;4.25;;;6.00;78.10;;;;;;4794325;29;20054;-81
2022/02/27 01:22:42;;;;;;;6.10;4.35;;;6.00;78.20;;;;;;4808481;29;20563;-80
2022/02/27 01:25:10;;;;;;;6.18;4.13;;;6.00;78.20;;;;;;4808330;29;20500;-81
2022/02/27 01:27:36;;;;;;;6.95;4.75;;;5.90;78.20;;;;;;4793338;29;20050;-80
2022/02/27 01:30:06;;;;;;;7.10;5.05;;;5.90;78.20;;;;;;4808458;29;20053;-80
2022/02/27 01:32:32;;;;;;;6.70;4.30;;;5.90;78.20;;;;;;4809094;29;20042;-80
2022/02/27 01:34:57;;;;;;;7.05;4.47;;;5.80;78.10;;;;;;4808470;29;20459;-80
2022/02/27 01:37:23;;;;;;;7.20;4.30;;;5.90;78.20;;;;;;4793496;29;20049;-80
2022/02/27 01:39:49;;;;;;;6.18;3.90;;;5.80;78.10;;;;;;4808500;29;20030;-80
2022/02/27 01:42:17;;;;;;;6.10;4.03;;;5.80;78.20;;;;;;4808494;29;20503;-80
2022/02/27 01:44:45;;;;;;;7.00;4.43;;;5.80;78.20;;;;;;4823245;29;20054;-80
2022/02/27 01:47:12;;;;;;;5.75;3.72;;;5.80;78.20;;;;;;4808611;29;20491;-80
2022/02/27 01:49:39;;;;;;;6.65;3.85;;;5.70;78.10;;;;;;4808408;29;20038;-80
2022/02/27 01:52:06;;;;;;;6.13;4.07;;;5.70;78.10;;;;;;4808265;29;20042;-80
2022/02/27 01:54:33;;;;;;;6.50;4.32;;;5.70;78.10;;;;;;4808163;29;20034;-80
2022/02/27 01:57:00;;;;;;;5.57;3.80;;;5.70;78.10;;;;;;4823486;29;20462;-80
2022/02/27 01:59:26;;;;;;;7.10;4.25;;;5.70;78.10;;;;;;4825552;29;20162;-80
2022/02/27 02:01:53;;;;;;;5.93;3.75;;;5.70;78.20;;;;;;4812027;29;20473;-80
2022/02/27 02:04:19;;;;;;;5.97;3.80;;;5.70;78.20;;;;;;4812385;29;20122;-81
2022/02/27 02:06:45;;;;;;;6.80;4.10;;;5.60;78.10;;;;;;4811744;29;20027;-80
2022/02/27 02:09:12;;;;;;;6.45;3.83;;;5.60;78.10;;;;;;4811874;29;20038;-79
2022/02/27 02:11:43;;;;;;;6.00;3.65;;;5.60;78.10;;;;;;4826383;29;20036;-78
2022/02/27 02:14:10;;;;;;;6.00;4.00;;;5.60;78.10;;;;;;4826588;29;20110;-80
2022/02/27 02:16:45;;;;;;;6.60;4.00;;;5.60;78.10;;;;;;4796691;29;20059;-79
2022/02/27 02:19:18;;;;;;;6.28;4.22;;;5.60;78.20;;;;;;4826828;29;20036;-80
2022/02/27 02:21:47;;;;;;;6.68;4.05;;;5.50;78.10;;;;;;4811959;29;20065;-80
2022/02/27 02:24:16;;;;;;;5.25;3.70;;;5.50;78.10;;;;;;4797053;29;20027;-80
2022/02/27 02:26:44;;;;;;;5.82;3.78;;;5.50;78.10;;;;;;4811530;29;20050;-79
2022/02/27 02:29:14;;;;;;;5.88;3.75;;;5.50;78.10;;;;;;4811912;29;20110;-80
2022/02/27 02:31:42;;;;;;;7.47;4.10;;;5.50;78.20;;;;;;4826387;29;20034;-81
2022/02/27 02:34:10;;;;;;;7.05;4.38;;;5.40;78.10;;;;;;4810642;29;20038;-78
2022/02/27 02:36:38;;;;;;;7.35;3.83;;;5.40;78.10;;;;;;4826263;29;20372;-80
2022/02/27 02:39:06;;;;;;;5.80;3.75;;;5.40;78.10;;;;;;4811245;29;20482;-79
2022/02/27 02:41:33;;;;;;;5.40;3.55;;;5.50;78.20;;;;;;4825795;29;20125;-79
2022/02/27 02:44:00;;;;;;;5.00;3.47;;;5.40;78.10;;;;;;4811448;29;20034;-79
2022/02/27 02:46:26;;;;;;;6.25;4.13;;;5.40;78.10;;;;;;4826167;29;20038;-79
2022/02/27 02:48:55;;;;;;;6.25;3.75;;;5.40;78.10;;;;;;4810938;29;20469;-79
2022/02/27 02:51:32;;;;;;;6.68;3.53;;;5.40;78.20;;;;;;4826155;29;20030;-79
2022/02/27 02:53:59;;;;;;;5.05;3.70;;;5.30;78.10;;;;;;4826187;29;20038;-80
2022/02/27 02:56:24;;;;;;;6.25;3.60;;;5.30;78.10;;;;;;4826706;29;20041;-78
2022/02/27 02:58:50;;;;;;;7.65;3.97;;;5.30;78.10;;;;;;4826686;29;20039;-80
2022/02/27 03:01:18;;;;;;;6.20;3.90;;;5.30;78.20;;;;;;4826094;29;20026;-79
2022/02/27 03:03:46;;;;;;;6.32;3.65;;;5.30;78.20;;;;;;4810740;29;20030;-80
2022/02/27 03:06:13;;;;;;;5.38;3.70;;;5.30;78.20;;;;;;4825722;29;20103;-80
2022/02/27 03:08:41;;;;;;;7.43;4.18;;;5.30;78.20;;;;;;4826431;29;20129;-79
2022/02/27 03:11:07;;;;;;;5.38;3.60;;;5.20;78.10;;;;;;4824784;29;20119;-80
2022/02/27 03:13:33;;;;;;;5.70;3.90;;;5.30;78.20;;;;;;4810742;29;20396;-79
2022/02/27 03:15:59;;;;;;;6.68;3.42;;;5.20;78.20;;;;;;4810322;29;20483;-79
2022/02/27 03:18:25;;;;;;;5.57;3.67;;;5.20;78.20;;;;;;4825452;29;20030;-79
2022/02/27 03:20:51;;;;;;;6.10;3.70;;;5.20;78.20;;;;;;4825483;29;20026;-79
2022/02/27 03:23:18;;;;;;;5.80;3.53;;;5.20;78.20;;;;;;4810481;29;20039;-80
2022/02/27 03:25:43;;;;;;;6.25;3.75;;;5.20;78.20;;;;;;4825531;29;20121;-79
2022/02/27 03:28:10;;;;;;;5.80;3.80;;;5.20;78.10;;;;;;4810340;29;20150;-79
2022/02/27 03:30:38;;;;;;;6.50;4.00;;;5.20;78.20;;;;;;4810580;29;20103;-79
2022/02/27 03:33:07;;;;;;;7.68;4.22;;;5.10;78.10;;;;;;4825304;29;20031;-79
2022/02/27 03:35:34;;;;;;;5.50;3.83;;;5.10;78.10;;;;;;4810355;29;20065;-78
2022/02/27 03:38:00;;;;;;;5.13;3.67;;;5.10;78.20;;;;;;4810034;29;20034;-79
2022/02/27 03:40:26;;;;;;;5.30;3.40;;;5.10;78.10;;;;;;4810084;29;20034;-79
2022/02/27 03:42:52;;;;;;;6.13;3.65;;;5.10;78.10;;;;;;4824931;29;20109;-79
2022/02/27 03:45:18;;;;;;;7.38;3.95;;;5.10;78.10;;;;;;4809962;29;20094;-80
2022/02/27 03:47:44;;;;;;;6.07;3.83;;;5.10;78.10;;;;;;4794786;29;20047;-79
2022/02/27 03:50:12;;;;;;;5.40;3.63;;;5.10;78.20;;;;;;4809833;29;20038;-80
2022/02/27 03:52:37;;;;;;;5.80;3.78;;;5.10;78.20;;;;;;4809684;29;20041;-79
2022/02/27 03:55:04;;;;;;;7.25;4.30;;;5.10;78.70;;;;;;4825751;29;20027;-80
2022/02/27 03:57:30;;;;;;;5.43;3.42;;;5.00;78.10;;;;;;4795564;29;20038;-79
2022/02/27 03:59:56;;;;;;;4.72;3.22;;;5.00;78.10;;;;;;4825050;29;20417;-79
2022/02/27 04:02:22;;;;;;;6.18;3.53;;;5.00;78.10;;;;;;4809731;29;20035;-79
2022/02/27 04:04:47;;;;;;;5.25;3.50;;;5.00;78.10;;;;;;4810234;29;20033;-79
2022/02/27 04:07:14;;;;;;;6.75;3.95;;;5.00;78.10;;;;;;4794534;29;20507;-79
2022/02/27 04:09:40;;;;;;;4.85;3.42;;;5.00;78.10;;;;;;4794964;29;20062;-79
2022/02/27 04:12:06;;;;;;;6.05;3.80;;;5.00;78.10;;;;;;4824901;29;20497;-79
2022/02/27 04:14:32;;;;;;;5.70;3.40;;;4.90;78.10;;;;;;4794582;29;20085;-80
2022/02/27 04:16:58;;;;;;;5.15;3.30;;;4.90;78.10;;;;;;4809716;29;20135;-79
2022/02/27 04:19:24;;;;;;;5.45;3.47;;;4.90;78.10;;;;;;4808839;29;20066;-79
2022/02/27 04:21:49;;;;;;;5.60;3.53;;;4.90;78.10;;;;;;4809043;29;20106;-79
2022/02/27 04:24:16;;;;;;;4.88;3.35;;;4.90;78.10;;;;;;4809252;29;20125;-79
2022/02/27 04:26:43;;;;;;;6.90;3.70;;;4.90;78.10;;;;;;4808926;29;20519;-80
2022/02/27 04:29:10;;;;;;;4.95;3.60;;;4.90;78.20;;;;;;4824591;29;20087;-79
2022/02/27 04:31:36;;;;;;;4.88;3.33;;;4.90;78.20;;;;;;4809529;29;20472;-80
2022/02/27 04:34:03;;;;;;;5.30;3.42;;;4.90;78.80;;;;;;4809551;29;20041;-79
2022/02/27 04:36:28;;;;;;;4.75;3.42;;;4.90;78.20;;;;;;4824766;29;20120;-79
2022/02/27 04:38:54;;;;;;;6.80;3.67;;;4.80;78.10;;;;;;4824424;29;20133;-79
2022/02/27 04:41:21;;;;;;;6.60;3.70;;;4.80;78.10;;;;;;4809101;29;20522;-79
2022/02/27 04:43:47;;;;;;;4.50;3.25;;;4.80;78.10;;;;;;4809341;29;20050;-79
2022/02/27 04:46:13;;;;;;;5.65;3.75;;;4.80;78.10;;;;;;4824342;29;20030;-79
2022/02/27 04:48:40;;;;;;;5.95;3.78;;;4.80;78.10;;;;;;4809005;29;20035;-78
2022/02/27 04:51:06;;;;;;;6.18;3.53;;;4.80;78.10;;;;;;4793811;29;20041;-79
2022/02/27 04:53:35;;;;;;;5.32;3.55;;;4.80;78.10;;;;;;4808900;29;20125;-79
2022/02/27 04:56:02;;;;;;;4.90;3.53;;;4.80;78.20;;;;;;4808937;29;20026;-79
2022/02/27 04:58:27;;;;;;;5.82;3.58;;;4.80;78.20;;;;;;4824153;29;20038;-79
2022/02/27 05:00:53;;;;;;;6.03;3.75;;;4.80;78.20;;;;;;4824135;29;20030;-79
2022/02/27 05:03:19;;;;;;;6.57;3.55;;;4.80;78.20;;;;;;4808806;29;20019;-80
2022/02/27 05:05:45;;;;;;;5.18;3.17;;;4.80;78.20;;;;;;4824827;29;20037;-79
2022/02/27 05:08:11;;;;;;;5.80;3.47;;;4.70;78.20;;;;;;4823727;29;20117;-79
2022/02/27 05:10:37;;;;;;;5.15;3.47;;;4.70;78.20;;;;;;4823662;29;20038;-79
2022/02/27 05:13:03;;;;;;;5.07;3.47;;;4.70;78.20;;;;;;4793629;29;20472;-79
2022/02/27 05:15:30;;;;;;;4.38;3.22;;;4.70;78.20;;;;;;4824076;29;20027;-79
2022/02/27 05:17:56;;;;;;;6.85;3.75;;;4.70;78.20;;;;;;4794235;29;20041;-79
2022/02/27 05:20:22;;;;;;;6.32;3.53;;;4.70;78.20;;;;;;4823578;29;20034;-80
2022/02/27 05:22:49;;;;;;;4.97;3.67;;;4.70;78.20;;;;;;4808608;29;20364;-79
2022/02/27 05:25:18;;;;;;;6.45;4.18;;;4.70;78.20;;;;;;4824001;29;20038;-79
2022/02/27 05:27:45;;;;;;;5.90;3.63;;;4.70;78.20;;;;;;4808022;29;20046;-79
2022/02/27 05:30:11;;;;;;;5.78;3.58;;;4.70;78.20;;;;;;4808572;29;20050;-79
2022/02/27 05:32:37;;;;;;;5.60;3.42;;;4.70;78.20;;;;;;4808113;29;20049;-79
2022/02/27 05:35:04;;;;;;;4.78;3.22;;;4.60;78.20;;;;;;4808551;29;20038;-79
2022/02/27 05:37:30;;;;;;;5.43;3.72;;;4.60;78.20;;;;;;4808872;29;20045;-79
2022/02/27 05:39:55;;;;;;;5.75;3.83;;;4.60;78.20;;;;;;4794303;29;20356;-79
2022/02/27 05:42:21;;;;;;;7.65;3.97;;;4.60;78.20;;;;;;4808327;29;20551;-79
2022/02/27 05:44:47;;;;;;;6.22;3.85;;;4.60;78.20;;;;;;4808264;29;20038;-79
2022/02/27 05:47:13;;;;;;;7.38;3.88;;;4.60;78.20;;;;;;4824103;29;20480;-80
2022/02/27 05:49:39;;;;;;;6.35;3.40;;;4.60;78.20;;;;;;4824013;29;20042;-79
2022/02/27 05:52:05;;;;;;;6.60;3.55;;;4.60;78.20;;;;;;4808083;29;20034;-79
2022/02/27 05:54:31;;;;;;;7.25;3.65;;;4.60;78.20;;;;;;4808052;29;20461;-79
2022/02/27 05:56:57;;;;;;;4.93;3.53;;;4.60;78.20;;;;;;4807960;29;20067;-79
2022/02/27 05:59:23;;;;;;;7.45;4.05;;;4.60;78.20;;;;;;4808234;29;20100;-79
2022/02/27 06:01:49;;;;;;;5.05;3.42;;;4.50;78.20;;;;;;4824040;29;20459;-80
2022/02/27 06:04:16;;;;;;;6.90;3.97;;;4.50;78.10;;;;;;4808447;29;20064;-78
2022/02/27 06:06:42;;;;;;;6.30;3.65;;;4.60;78.20;;;;;;4808197;29;20494;-81
2022/02/27 06:09:08;;;;;;;5.30;3.47;;;4.50;78.10;;;;;;4807953;29;20073;-78
2022/02/27 06:11:34;;;;;;;7.18;4.00;;;4.50;78.20;;;;;;4823653;29;20066;-78
2022/02/27 06:13:59;;;;;;;7.05;3.58;;;4.50;78.10;;;;;;4807996;29;20053;-79
2022/02/27 06:16:25;;;;;;;4.68;3.47;;;4.50;78.10;;;;;;4792761;29;20087;-80
2022/02/27 06:18:51;;;;;;;5.88;3.67;;;4.50;78.20;;;;;;4808241;29;20059;-79
2022/02/27 06:21:17;;;;;;;5.43;3.33;;;4.50;78.20;;;;;;4807708;29;20396;-77
2022/02/27 06:23:43;;;;;;;5.25;3.33;;;4.50;78.20;;;;;;4823622;29;20090;-79
2022/02/27 06:26:08;;;;;;;6.13;3.70;;;4.50;78.20;;;;;;4823043;29;20035;-78
2022/02/27 06:28:34;;;;;;;5.07;3.42;;;4.50;78.20;;;;;;4792231;29;20046;-77
2022/02/27 06:31:00;;;;;;;5.22;3.55;;;4.40;78.10;;;;;;4807606;29;20064;-79
2022/02/27 06:33:25;;;;;;;4.90;3.42;;;4.50;78.20;;;;;;4792842;29;20035;-78
2022/02/27 06:35:51;;;;;;;5.07;3.30;;;4.40;78.10;;;;;;4792584;29;20038;-78
2022/02/27 06:38:17;;;;;;;5.22;3.33;;;4.40;78.10;;;;;;4807695;29;20054;-78
2022/02/27 06:40:43;;;;;;;5.13;3.45;;;4.40;78.10;;;;;;4808206;29;20122;-77
2022/02/27 06:43:08;;;;;;;5.35;3.28;;;4.40;78.20;;;;;;4792628;29;20031;-78
2022/02/27 06:45:35;;;;;;;5.93;3.38;;;4.40;78.20;;;;;;4808305;29;20146;-77
2022/02/27 06:48:00;;;;;;;6.13;3.85;;;4.40;78.20;;;;;;4810514;29;20038;-77
2022/02/27 06:50:26;;;;;;;5.90;4.03;;;4.40;78.20;;;;;;4825492;29;20035;-76
2022/02/27 06:52:52;;;;;;;6.47;3.45;;;4.40;78.20;;;;;;4810650;29;20461;-77
2022/02/27 06:55:19;;;;;;;5.75;3.42;;;4.30;78.10;;;;;;4810290;29;20038;-78
2022/02/27 06:57:46;;;;;;;5.53;3.47;;;4.40;78.20;;;;;;4811039;29;20102;-78
2022/02/27 07:00:13;;;;;;;5.88;3.50;;;4.30;78.20;;;;;;4825450;29;20035;-77
2022/02/27 07:02:39;;;;;;;4.82;3.28;;;4.30;78.20;;;;;;4825419;29;20058;-77
2022/02/27 07:05:06;;;;;;;5.50;3.75;;;4.30;78.20;;;;;;4810698;29;20480;-76
2022/02/27 07:07:32;;;;;;;5.18;3.38;;;4.30;78.20;;;;;;4810333;29;20058;-78
2022/02/27 07:10:00;;;;;;;4.53;3.17;;;4.30;78.20;;;;;;4810639;29;20050;-77
2022/02/27 07:12:36;;;;;;;4.63;3.60;;;4.30;78.20;;;;;;4810257;29;20483;-78
2022/02/27 07:15:04;;;;;;;4.60;2.92;;;4.30;78.90;;;;;;4825470;29;20426;-77
2022/02/27 07:17:30;;;;;;;5.72;3.42;;;4.30;78.20;;;;;;4825236;29;20027;-77
2022/02/27 07:19:56;;;;;;;5.45;3.90;;;4.30;78.20;;;;;;4826841;29;20049;-77
2022/02/27 07:22:22;;;;;;;6.53;3.75;;;4.30;78.20;;;;;;4810162;29;20030;-78
2022/02/27 07:24:49;;;;;;;5.82;3.33;;;4.30;78.20;;;;;;4825209;29;20038;-77
2022/02/27 07:27:18;;;;;;;4.38;3.00;;;4.20;78.20;;;;;;4809653;29;20061;-77
2022/02/27 07:29:44;;;;;;;5.72;3.67;;;4.30;78.30;;;;;;4824941;29;20039;-77
2022/02/27 07:32:14;;;;;;;6.85;3.85;;;4.30;78.20;;;;;;4825679;29;20042;-77
2022/02/27 07:34:41;;;;;;;5.35;3.53;;;4.30;78.30;;;;;;4811190;29;20074;-77
2022/02/27 07:37:07;;;;;;;4.75;3.20;;;4.20;78.20;;;;;;4824912;29;20042;-78
2022/02/27 07:39:32;;;;;;;5.75;3.22;;;4.20;78.20;;;;;;4827998;29;20030;-79
2022/02/27 07:41:58;;;;;;;5.15;3.45;;;4.20;78.20;;;;;;4810177;29;20026;-77
2022/02/27 07:44:25;;;;;;;5.47;3.28;;;4.20;78.20;;;;;;4809746;29;20034;-77
2022/02/27 07:46:51;;;;;;;4.65;3.78;;;4.20;78.30;;;;;;4824606;29;20034;-77
2022/02/27 07:49:17;;;;;;;5.13;3.22;;;4.20;78.30;;;;;;4809410;29;20181;-77
2022/02/27 07:51:43;;;;;;;4.10;2.97;;;4.20;78.20;;;;;;4809659;29;20114;-77
2022/02/27 07:54:09;;;;;;;6.13;3.67;;;4.20;78.20;;;;;;4809650;29;20026;-78
2022/02/27 07:56:35;;;;;;;4.53;3.20;;;4.20;78.30;;;;;;4824063;29;20034;-78
2022/02/27 07:59:01;;;;;;;5.00;3.08;;;4.20;78.20;;;;;;4809259;29;20026;-77
2022/02/27 08:01:29;;;;;;;4.80;3.25;;;4.20;78.30;;;;;;4809377;29;20058;-77
2022/02/27 08:03:56;;;;;;;5.35;3.70;;;4.20;78.30;;;;;;4824258;29;20102;-76
2022/02/27 08:06:22;;;;;;;5.00;3.30;;;4.20;78.30;;;;;;4824371;29;20030;-77
2022/02/27 08:08:48;;;;;;;5.43;3.10;;;4.20;78.30;;;;;;4809026;29;20392;-78
2022/02/27 08:11:14;;;;;;;4.82;3.17;;;4.20;78.90;;;;;;4794085;29;20051;-79
2022/02/27 08:13:40;;;;;;;4.55;2.70;;;4.30;78.30;;;;;;4824219;29;20035;-79
2022/02/27 08:16:06;;;;;;;6.50;3.35;;;4.30;78.40;;;;;;4824209;29;20187;-80
2022/02/27 08:18:32;;;;;;;4.80;3.45;;;4.20;78.30;;;;;;4808753;29;20113;-77
2022/02/27 08:21:00;;;;;;;4.78;3.15;;;4.20;78.30;;;;;;4808688;29;20030;-77
2022/02/27 08:23:27;;;;;;;4.38;3.33;;;4.30;78.40;;;;;;4808930;29;20035;-77
2022/02/27 08:25:53;;;;;;;4.80;3.30;;;4.20;78.30;;;;;;4824040;29;20034;-77
2022/02/27 08:28:20;;;;;;;3.95;3.20;;;4.30;78.40;;;;;;4808714;29;20054;-78
2022/02/27 08:30:47;;;;;;;4.22;3.05;;;4.30;78.40;;;;;;4809291;29;20042;-77
2022/02/27 08:33:12;;;;;;;4.90;3.35;;;4.30;79.10;;;;;;4794090;29;20041;-77
2022/02/27 08:35:39;;;;;;;4.45;3.50;;;4.30;78.40;;;;;;4809129;29;20031;-77
2022/02/27 08:38:05;;;;;;;6.18;3.70;;;4.30;78.40;;;;;;4808970;29;20030;-78
2022/02/27 08:40:31;;;;;;;4.65;2.97;;;4.30;78.50;;;;;;4793857;29;20077;-77
2022/02/27 08:42:59;;;;;;;4.80;3.25;;;4.30;78.50;;;;;;4808823;29;20038;-77
2022/02/27 08:45:25;;;;;;;4.43;3.25;;;4.30;78.50;;;;;;4824200;29;20446;-77
2022/02/27 08:47:52;;;;;;;4.20;3.40;;;4.30;78.50;;;;;;4824017;29;20218;-79
2022/02/27 08:50:20;;;;;;;4.47;3.22;;;4.30;78.50;;;;;;4823504;29;20042;-77
2022/02/27 08:52:46;;;;;;;5.50;3.28;;;4.30;78.50;;;;;;4808989;29;20476;-77
2022/02/27 08:55:15;;;;;;;5.57;3.42;;;4.30;78.50;;;;;;4823641;29;20069;-78
2022/02/27 08:57:42;;;;;;;5.53;3.35;;;4.40;78.60;;;;;;4808908;29;20034;-77
2022/02/27 09:00:10;;;;;;;5.15;3.17;;;4.40;78.60;;;;;;4808339;29;20072;-77
2022/02/27 09:02:37;;;;;;;5.03;3.35;;;4.40;78.60;;;;;;4808462;29;20170;-79
2022/02/27 09:05:05;;;;;;;4.95;3.40;;;4.40;78.60;;;;;;4825226;29;20035;-77
2022/02/27 09:07:31;;;;;;;4.68;3.20;;;4.40;78.60;;;;;;4808381;29;20073;-78
2022/02/27 09:09:57;;;;;;;5.28;3.75;;;4.40;78.60;;;;;;4823243;29;20491;-77
2022/02/27 09:12:23;;;;;;;4.05;3.05;;;4.40;78.70;;;;;;4808256;29;20062;-78
2022/02/27 09:14:49;;;;;;;5.38;3.15;;;4.40;78.70;;;;;;4808418;29;20396;-77
2022/02/27 09:17:15;;;;;;;4.00;2.88;;;4.40;78.70;;;;;;4793336;29;20045;-78
2022/02/27 09:19:40;;;;;;;3.90;3.05;;;4.50;78.70;;;;;;4808022;29;20034;-79
2022/02/27 09:22:06;;;;;;;4.88;3.03;;;4.50;78.70;;;;;;4808698;29;20469;-77
2022/02/27 09:24:32;;;;;;;4.07;3.08;;;4.50;78.70;;;;;;4823147;29;20113;-77
2022/02/27 09:26:58;;;;;;;4.68;3.50;;;4.60;78.70;;;;;;4794432;29;20135;-78
2022/02/27 09:29:24;;;;;;;4.22;3.33;;;4.60;78.70;;;;;;4826404;29;20488;-77
2022/02/27 09:31:51;;;;;;;4.38;3.03;;;4.60;78.70;;;;;;4811223;29;20069;-77
2022/02/27 09:34:19;;;;;;;4.22;3.22;;;4.60;78.70;;;;;;4782082;29;20548;-78
2022/02/27 09:36:45;;;;;;;4.80;3.30;;;4.70;78.80;;;;;;4810895;29;20034;-77
2022/02/27 09:39:11;;;;;;;5.60;3.35;;;4.70;78.70;;;;;;4811165;29;20026;-77
2022/02/27 09:41:36;;;;;;;4.60;3.20;;;4.80;78.80;;;;;;4826525;29;20420;-78
2022/02/27 09:44:04;;;;;;;4.80;3.10;;;4.80;78.70;;;;;;4826004;29;20041;-77
2022/02/27 09:46:31;;;;;;;4.28;3.10;;;4.80;78.80;;;;;;4811252;29;20034;-77
2022/02/27 09:49:00;;;;;;;5.35;3.20;;;4.90;78.80;;;;;;4814829;29;20041;-77
2022/02/27 09:51:36;;;;;;;4.68;3.33;;;4.90;78.80;;;;;;4818856;29;20121;-78
2022/02/27 09:54:05;;;;;;;3.92;2.90;;;5.00;78.90;;;;;;4813420;29;20037;-78
2022/02/27 09:56:32;;;;;;;5.50;3.30;;;5.00;78.80;;;;;;4811563;29;20427;-78
2022/02/27 09:58:57;;;;;;;4.35;3.00;;;5.10;78.80;;;;;;4810991;29;20042;-79
2022/02/27 10:01:23;;;;;;;4.55;2.85;;;5.10;78.70;;;;;;4811417;29;20486;-78
2022/02/27 10:03:49;;;;;;;4.40;3.00;;;5.20;78.80;;;;;;4826126;29;20041;-79
2022/02/27 10:06:18;;;;;;;5.18;3.15;;;5.20;78.70;;;;;;4827026;29;20380;-79
2022/02/27 10:08:57;;;;;;;4.38;3.17;;;5.30;78.80;;;;;;4825731;29;20077;-79
2022/02/27 10:11:24;;;;;;;3.70;2.90;;;5.40;78.90;;;;;;4825624;29;20030;-78
2022/02/27 10:13:55;;;;;;;5.07;3.55;;;5.40;78.80;;;;;;4810853;29;20436;-77
2022/02/27 10:16:23;;;;;;;5.57;3.10;;;5.50;78.80;;;;;;4826194;29;20069;-79
2022/02/27 10:18:51;;;;;;;5.72;3.25;;;5.50;78.70;;;;;;4810334;29;20037;-78
2022/02/27 10:21:22;;;;;;;6.10;3.38;;;5.60;78.80;;;;;;4814812;29;20030;-79
2022/02/27 10:24:01;;;;;;;3.97;3.00;;;5.60;78.70;;;;;;4828845;29;20037;-76
2022/02/27 10:26:28;;;;;;;3.92;2.78;;;5.70;78.80;;;;;;4814107;29;20123;-78
2022/02/27 10:29:06;;;;;;;4.32;3.13;;;5.70;78.60;;;;;;4828412;29;20045;-77
2022/02/27 10:31:32;;;;;;;5.07;3.38;;;5.80;78.70;;;;;;4829159;29;20370;-78
2022/02/27 10:34:10;;;;;;;5.38;3.42;;;5.90;78.70;;;;;;4798668;29;20117;-78
2022/02/27 10:36:36;;;;;;;6.00;3.72;;;6.00;78.70;;;;;;4814548;29;20037;-78
2022/02/27 10:39:03;;;;;;;4.38;3.22;;;6.00;78.60;;;;;;4814591;29;20038;-76
2022/02/27 10:41:36;;;;;;;3.90;2.92;;;6.10;78.60;;;;;;4829029;29;20387;-78
2022/02/27 10:44:02;;;;;;;4.55;3.22;;;6.20;78.70;;;;;;4828780;29;20026;-78
2022/02/27 10:46:31;;;;;;;6.60;3.67;;;6.30;78.60;;;;;;4813805;29;20055;-77
2022/02/27 10:48:57;;;;;;;4.53;3.25;;;6.30;78.50;;;;;;4828685;29;20398;-77
2022/02/27 10:51:23;;;;;;;5.43;3.10;;;6.40;78.50;;;;;;4813492;29;20030;-79
2022/02/27 10:53:49;;;;;;;4.70;3.58;;;6.50;78.60;;;;;;4828835;29;20042;-79
2022/02/27 10:56:16;;;;;;;6.97;3.83;;;6.50;78.50;;;;;;4828817;29;20046;-79
2022/02/27 10:58:45;;;;;;;5.25;3.15;;;6.60;78.50;;;;;;4828446;29;20419;-77
2022/02/27 11:01:19;;;;;;;4.82;3.17;;;6.70;78.50;;;;;;4813255;29;20092;-79
2022/02/27 11:03:47;;;;;;;5.43;3.38;;;6.80;78.60;;;;;;4828372;29;20068;-79
2022/02/27 11:06:14;;;;;;;5.05;3.30;;;6.90;78.50;;;;;;4813822;29;20034;-78
2022/02/27 11:08:41;;;;;;;4.53;3.28;;;6.90;78.50;;;;;;4834585;29;20041;-83
2022/02/27 11:11:08;;;;;;;5.03;3.50;;;7.00;78.60;;;;;;4816557;29;20121;-79
2022/02/27 11:13:34;;;;;;;5.40;3.40;;;7.10;78.60;;;;;;4816076;29;20054;-80
2022/02/27 11:16:03;;;;;;;5.15;3.80;;;7.20;78.60;;;;;;4813703;29;20065;-76
2022/02/27 11:18:30;;;;;;;5.43;3.63;;;7.20;78.60;;;;;;4813835;29;20041;-75
2022/02/27 11:20:57;;;;;;;4.50;3.42;;;7.30;78.60;;;;;;4813127;29;20094;-76
2022/02/27 11:23:25;;;;;;;5.03;3.47;;;7.40;78.60;;;;;;4812859;29;20090;-76
2022/02/27 11:25:51;;;;;;;6.00;3.63;;;7.40;78.60;;;;;;4812978;29;20026;-76
2022/02/27 11:28:23;;;;;;;4.63;3.20;;;7.50;78.60;;;;;;4827825;29;20137;-75
2022/02/27 11:30:53;;;;;;;6.20;3.35;;;7.60;78.60;;;;;;4827752;29;20435;-82
2022/02/27 11:33:24;;;;;;;5.30;3.40;;;7.60;78.50;;;;;;4828805;29;20038;-77
2022/02/27 11:35:54;;;;;;;4.95;3.33;;;7.70;78.50;;;;;;4813944;29;20041;-80
2022/02/27 11:38:37;;;;;;;4.60;3.13;;;7.80;78.50;;;;;;4813273;29;20061;-76
2022/02/27 11:41:06;;;;;;;4.97;3.40;;;7.80;78.60;;;;;;4844653;29;20033;-78
2022/02/27 11:43:51;;;;;;;4.80;3.42;;;7.80;78.40;;;;;;4813050;29;20053;-78
2022/02/27 11:46:32;;;;;;;5.50;3.33;;;7.90;78.60;;;;;;4827785;29;20042;-78
2022/02/27 11:49:00;;;;;;;5.00;3.40;;;8.00;78.60;;;;;;4813114;29;20053;-79
2022/02/27 11:51:38;;;;;;;7.53;4.00;;;8.00;78.50;;;;;;4813672;29;20090;-80
2022/02/27 11:54:14;;;;;;;6.40;3.55;;;8.00;79.20;;;;;;4812522;29;20034;-77
2022/02/27 11:56:44;;;;;;;5.18;3.50;;;8.10;78.60;;;;;;4827967;29;20033;-77
2022/02/27 11:59:11;;;;;;;5.57;3.60;;;8.10;78.60;;;;;;4828098;29;20038;-76
2022/02/27 12:01:49;;;;;;;5.10;3.70;;;8.20;78.70;;;;;;4812477;29;20472;-77
2022/02/27 12:04:21;;;;;;;5.07;3.30;;;8.20;78.80;;;;;;4827708;29;20546;-77
2022/02/27 12:07:08;;;;;;;4.47;3.20;;;8.30;78.80;;;;;;4812494;29;20073;-79
2022/02/27 12:09:49;;;;;;;4.70;3.22;;;8.30;78.90;;;;;;4813019;29;20046;-77
2022/02/27 12:12:53;;;;;;;5.00;3.40;;;8.40;78.90;;;;;;4827335;29;20045;-77
2022/02/27 12:15:36;;;;;;;5.28;3.45;;;8.40;79.00;;;;;;4812923;29;20117;-77
2022/02/27 12:18:11;;;;;;;5.63;3.40;;;8.40;78.80;;;;;;4827511;29;20073;-77
2022/02/27 12:20:37;;;;;;;4.28;3.13;;;8.50;79.00;;;;;;4827377;29;20066;-79
2022/02/27 12:23:03;;;;;;;6.38;3.65;;;8.50;78.90;;;;;;4812152;29;20121;-77
2022/02/27 12:25:38;;;;;;;4.93;3.45;;;8.60;79.00;;;;;;4812302;29;20106;-77
2022/02/27 12:28:04;;;;;;;4.83;3.57;;;8.60;79.00;;;;;;4826826;29;20058;-77
2022/02/27 12:30:30;;;;;;;5.97;3.17;;;8.70;79.00;;;;;;4843541;29;20038;-77
2022/02/27 12:33:07;;;;;;;4.05;3.10;;;8.70;79.00;;;;;;4827186;29;20116;-78
2022/02/27 12:35:39;;;;;;;4.38;3.22;;;8.80;79.00;;;;;;4812345;29;20029;-77
2022/02/27 12:38:10;;;;;;;4.63;3.13;;;8.90;79.00;;;;;;4812054;29;20040;-78
2022/02/27 12:40:37;;;;;;;5.60;3.50;;;8.90;79.00;;;;;;4827230;29;20379;-78
2022/02/27 12:43:11;;;;;;;5.35;3.33;;;8.90;78.90;;;;;;4811811;29;20086;-78
2022/02/27 12:45:37;;;;;;;5.38;3.03;;;9.00;79.20;;;;;;4843973;29;20425;-78
2022/02/27 12:48:11;;;;;;;4.43;2.95;;;9.00;78.90;;;;;;4811571;29;20037;-78
2022/02/27 12:50:49;;;;;;;4.68;3.10;;;9.10;79.00;;;;;;4797573;29;20040;-78
2022/02/27 12:53:15;;;;;;;4.75;3.45;;;9.10;79.00;;;;;;4811781;29;20038;-78
2022/02/27 12:55:42;;;;;;;5.00;3.10;;;9.20;79.00;;;;;;4811728;29;20030;-77
2022/02/27 12:58:11;;;;;;;6.07;3.70;;;9.20;78.90;;;;;;4826460;29;20045;-78
2022/02/27 13:00:40;;;;;;;5.50;3.45;;;9.20;78.90;;;;;;4811348;29;20037;-76